createdAt,value
2018-01-25T00:00:19.641Z,1.50
2018-01-25T00:01:25.374Z,2.60
2018-01-25T00:02:31.133Z,2.35
2018-01-25T00:03:36.856Z,2.00
2018-01-25T00:04:42.618Z,2.00
2018-01-25T00:05:49.112Z,1.85
2018-01-25T00:06:54.911Z,1.73
2018-01-25T00:08:00.656Z,2.10
2018-01-25T00:09:05.733Z,2.25
2018-01-25T00:10:11.503Z,2.25
2018-01-25T00:11:17.246Z,2.17
2018-01-25T00:12:22.833Z,2.20
2018-01-25T00:13:28.577Z,2.03
2018-01-25T00:14:34.311Z,1.85
2018-01-25T00:15:40.079Z,1.90
2018-01-25T00:16:45.814Z,1.55
2018-01-25T00:17:51.718Z,1.62
2018-01-25T00:18:58.296Z,2.30
2018-01-25T00:20:04.680Z,2.03
2018-01-25T00:21:10.612Z,2.25
2018-01-25T00:22:16.446Z,1.95
2018-01-25T00:23:22.521Z,1.95
2018-01-25T00:24:29.301Z,2.20
2018-01-25T00:25:35.064Z,1.80
2018-01-25T00:26:40.853Z,1.73
2018-01-25T00:27:46.616Z,1.67
2018-01-25T00:28:52.383Z,2.50
2018-01-25T00:29:58.136Z,2.05
2018-01-25T00:31:03.878Z,1.80
2018-01-25T00:32:11.345Z,1.77
2018-01-25T00:33:17.068Z,1.92
2018-01-25T00:34:22.808Z,2.10
2018-01-25T00:35:28.541Z,1.73
2018-01-25T00:36:34.358Z,1.98
2018-01-25T00:37:40.668Z,1.83
2018-01-25T00:38:46.419Z,1.80
2018-01-25T00:39:52.162Z,1.83
2018-01-25T00:40:58.675Z,2.35
2018-01-25T00:42:04.420Z,1.55
2018-01-25T00:43:10.196Z,1.92
2018-01-25T00:44:15.927Z,2.55
2018-01-25T00:45:21.664Z,2.03
2018-01-25T00:46:27.435Z,2.00
2018-01-25T00:47:33.254Z,2.20
2018-01-25T00:48:39.022Z,1.80
2018-01-25T00:49:45.535Z,1.92
2018-01-25T00:50:51.256Z,2.42
2018-01-25T00:51:56.999Z,2.35
2018-01-25T00:53:02.723Z,1.80
2018-01-25T00:54:09.310Z,1.90
2018-01-25T00:55:15.051Z,2.03
2018-01-25T00:56:20.803Z,2.00
2018-01-25T00:57:26.540Z,2.42
2018-01-25T00:58:32.289Z,2.55
2018-01-25T00:59:38.062Z,2.87
2018-01-25T01:00:44.272Z,2.30
2018-01-25T01:01:49.988Z,2.20
2018-01-25T01:02:55.721Z,2.45
2018-01-25T01:04:02.218Z,1.70
2018-01-25T01:05:07.977Z,2.05
2018-01-25T01:06:13.703Z,2.10
2018-01-25T01:07:19.443Z,1.77
2018-01-25T01:08:25.169Z,1.87
2018-01-25T01:09:30.904Z,2.00
2018-01-25T01:10:36.653Z,1.70
2018-01-25T01:11:42.368Z,1.83
2018-01-25T01:12:48.701Z,1.65
2018-01-25T01:13:54.471Z,1.90
2018-01-25T01:15:00.222Z,1.92
2018-01-25T01:16:05.973Z,2.03
2018-01-25T01:17:11.718Z,1.52
2018-01-25T01:18:17.453Z,1.92
2018-01-25T01:19:23.195Z,2.00
2018-01-25T01:20:29.020Z,1.65
2018-01-25T01:21:34.772Z,1.95
2018-01-25T01:22:40.513Z,1.62
2018-01-25T01:23:46.246Z,2.00
2018-01-25T01:24:51.984Z,2.28
2018-01-25T01:25:57.715Z,2.40
2018-01-25T01:27:04.232Z,1.95
2018-01-25T01:28:10.006Z,2.12
2018-01-25T01:29:16.532Z,1.95
2018-01-25T01:30:22.268Z,2.15
2018-01-25T01:31:28.021Z,1.80
2018-01-25T01:32:33.810Z,2.15
2018-01-25T01:33:39.556Z,1.75
2018-01-25T01:34:45.272Z,2.33
2018-01-25T01:35:51.765Z,1.65
2018-01-25T01:36:57.509Z,2.35
2018-01-25T01:38:03.279Z,2.00
2018-01-25T01:39:09.015Z,1.55
2018-01-25T01:40:14.751Z,1.60
2018-01-25T01:41:20.561Z,2.60
2018-01-25T01:42:26.302Z,1.95
2018-01-25T01:43:32.068Z,2.20
2018-01-25T01:44:37.798Z,1.95
2018-01-25T01:45:43.616Z,1.83
2018-01-25T01:46:50.201Z,2.12
2018-01-25T01:47:55.944Z,1.50
2018-01-25T01:49:01.699Z,1.87
2018-01-25T01:50:07.443Z,1.70
2018-01-25T01:51:13.169Z,1.70
2018-01-25T01:52:18.930Z,1.70
2018-01-25T01:53:24.654Z,2.15
2018-01-25T01:54:30.801Z,1.90
2018-01-25T01:55:36.548Z,1.50
2018-01-25T01:56:42.280Z,1.50
2018-01-25T01:57:48.212Z,1.80
2018-01-25T01:58:53.972Z,1.80
2018-01-25T01:59:59.734Z,1.80
2018-01-25T02:01:05.474Z,1.55
2018-01-25T02:02:11.202Z,1.85
2018-01-25T02:03:17.020Z,1.52
2018-01-25T02:04:22.748Z,1.85
2018-01-25T02:05:29.272Z,2.28
2018-01-25T02:06:34.996Z,1.98
2018-01-25T02:07:40.874Z,1.40
2018-01-25T02:08:47.252Z,1.67
2018-01-25T02:09:52.992Z,1.85
2018-01-25T02:10:59.524Z,1.58
2018-01-25T02:12:05.248Z,1.40
2018-01-25T02:13:10.972Z,1.85
2018-01-25T02:14:16.699Z,1.90
2018-01-25T02:15:22.451Z,1.73
2018-01-25T02:16:28.220Z,1.83
2018-01-25T02:17:34.071Z,1.60
2018-01-25T02:18:41.375Z,1.75
2018-01-25T02:19:47.869Z,1.85
2018-01-25T02:20:53.589Z,1.55
2018-01-25T02:21:59.362Z,1.65
2018-01-25T02:23:05.085Z,1.73
2018-01-25T02:24:10.809Z,1.73
2018-01-25T02:25:17.676Z,1.55
2018-01-25T02:26:23.995Z,1.50
2018-01-25T02:27:29.756Z,1.35
2018-01-25T02:28:36.240Z,1.42
2018-01-25T02:29:41.975Z,1.40
2018-01-25T02:30:47.703Z,1.90
2018-01-25T02:31:54.207Z,1.80
2018-01-25T02:33:00.016Z,1.70
2018-01-25T02:34:05.887Z,1.30
2018-01-25T02:35:11.635Z,1.80
2018-01-25T02:36:17.445Z,1.62
2018-01-25T02:37:23.177Z,1.62
2018-01-25T02:38:29.731Z,1.52
2018-01-25T02:39:36.247Z,1.10
2018-01-25T02:40:41.986Z,1.42
2018-01-25T02:41:47.714Z,1.70
2018-01-25T02:42:53.575Z,1.80
2018-01-25T02:43:59.333Z,1.30
2018-01-25T02:45:04.722Z,1.25
2018-01-25T02:46:10.266Z,1.10
2018-01-25T02:47:15.982Z,1.45
2018-01-25T02:48:21.723Z,1.30
2018-01-25T02:49:27.498Z,1.30
2018-01-25T02:50:33.228Z,1.15
2018-01-25T02:51:38.983Z,2.65
2018-01-25T02:52:44.704Z,1.77
2018-01-25T02:53:50.428Z,1.30
2018-01-25T02:54:56.189Z,1.67
2018-01-25T02:56:01.937Z,1.58
2018-01-25T02:57:08.181Z,1.45
2018-01-25T02:58:13.943Z,1.23
2018-01-25T02:59:19.672Z,1.60
2018-01-25T03:00:25.569Z,1.70
2018-01-25T03:01:32.122Z,1.25
2018-01-25T03:02:38.043Z,1.40
2018-01-25T03:03:43.787Z,1.10
2018-01-25T03:04:49.526Z,1.45
2018-01-25T03:05:55.267Z,1.10
2018-01-25T03:07:01.014Z,1.73
2018-01-25T03:08:06.755Z,1.35
2018-01-25T03:09:12.481Z,1.33
2018-01-25T03:10:18.246Z,1.33
2018-01-25T03:11:24.010Z,1.10
2018-01-25T03:12:30.519Z,1.10
2018-01-25T03:13:36.235Z,1.85
2018-01-25T03:14:42.065Z,1.17
2018-01-25T03:15:48.579Z,1.55
2018-01-25T03:16:54.370Z,1.37
2018-01-25T03:18:00.872Z,1.17
2018-01-25T03:19:06.595Z,1.10
2018-01-25T03:20:12.339Z,1.60
2018-01-25T03:21:18.070Z,1.37
2018-01-25T03:22:23.827Z,1.40
2018-01-25T03:23:29.549Z,1.33
2018-01-25T03:24:35.303Z,1.00
2018-01-25T03:25:41.042Z,1.80
2018-01-25T03:26:46.769Z,1.50
2018-01-25T03:27:52.540Z,1.40
2018-01-25T03:28:58.262Z,1.30
2018-01-25T03:30:04.017Z,1.15
2018-01-25T03:31:09.756Z,1.20
2018-01-25T03:32:15.503Z,1.40
2018-01-25T03:33:21.256Z,1.60
2018-01-25T03:34:26.996Z,1.12
2018-01-25T03:35:32.731Z,1.10
2018-01-25T03:36:38.472Z,2.10
2018-01-25T03:37:44.198Z,1.30
2018-01-25T03:38:49.971Z,1.10
2018-01-25T03:39:55.706Z,1.40
2018-01-25T03:41:01.452Z,1.20
2018-01-25T03:42:07.224Z,1.15
2018-01-25T03:43:12.986Z,1.33
2018-01-25T03:44:18.748Z,1.10
2018-01-25T03:45:24.298Z,1.50
2018-01-25T03:46:30.047Z,1.42
2018-01-25T03:47:35.612Z,1.92
2018-01-25T03:48:42.125Z,1.40
2018-01-25T03:49:47.875Z,1.10
2018-01-25T03:50:53.668Z,1.10
2018-01-25T03:52:00.178Z,1.00
2018-01-25T03:53:05.597Z,1.40
2018-01-25T03:54:11.336Z,1.27
2018-01-25T03:55:17.275Z,1.10
2018-01-25T03:56:23.082Z,1.25
2018-01-25T03:57:28.852Z,1.55
2018-01-25T03:58:34.601Z,1.40
2018-01-25T03:59:40.378Z,1.70
2018-01-25T04:00:46.226Z,1.50
2018-01-25T04:01:52.132Z,1.25
2018-01-25T04:02:57.877Z,1.20
2018-01-25T04:04:03.595Z,1.10
2018-01-25T04:05:10.104Z,2.20
2018-01-25T04:06:15.853Z,1.25
2018-01-25T04:07:21.572Z,1.30
2018-01-25T04:08:27.309Z,1.62
2018-01-25T04:09:33.030Z,1.20
2018-01-25T04:10:38.766Z,1.33
2018-01-25T04:11:44.513Z,1.30
2018-01-25T04:12:50.389Z,1.30
2018-01-25T04:13:56.134Z,1.67
2018-01-25T04:15:01.868Z,1.80
2018-01-25T04:16:07.665Z,1.20
2018-01-25T04:17:13.434Z,1.75
2018-01-25T04:18:19.174Z,1.73
2018-01-25T04:19:25.130Z,1.98
2018-01-25T04:20:30.858Z,1.50
2018-01-25T04:21:36.584Z,1.33
2018-01-25T04:22:42.417Z,1.75
2018-01-25T04:23:48.921Z,1.62
2018-01-25T04:24:54.691Z,1.23
2018-01-25T04:26:00.433Z,1.60
2018-01-25T04:27:06.204Z,1.50
2018-01-25T04:28:12.768Z,1.20
2018-01-25T04:29:18.506Z,1.45
2018-01-25T04:30:24.246Z,1.65
2018-01-25T04:31:29.966Z,1.17
2018-01-25T04:32:36.481Z,2.45
2018-01-25T04:33:42.232Z,1.23
2018-01-25T04:34:47.981Z,1.30
2018-01-25T04:35:53.705Z,1.35
2018-01-25T04:36:59.447Z,1.90
2018-01-25T04:38:05.172Z,1.90
2018-01-25T04:39:10.941Z,1.65
2018-01-25T04:40:16.720Z,1.50
2018-01-25T04:41:23.204Z,1.30
2018-01-25T04:42:28.955Z,1.60
2018-01-25T04:43:34.504Z,1.30
2018-01-25T04:44:40.273Z,1.50
2018-01-25T04:45:46.019Z,1.87
2018-01-25T04:46:51.778Z,1.30
2018-01-25T04:47:58.084Z,1.50
2018-01-25T04:49:03.624Z,1.30
2018-01-25T04:50:09.398Z,1.40
2018-01-25T04:51:15.143Z,1.73
2018-01-25T04:52:21.658Z,1.50
2018-01-25T04:53:27.196Z,1.90
2018-01-25T04:54:32.939Z,1.50
2018-01-25T04:55:38.687Z,1.37
2018-01-25T04:56:44.440Z,1.10
2018-01-25T04:57:49.976Z,2.00
2018-01-25T04:58:55.705Z,1.80
2018-01-25T05:00:01.455Z,2.00
2018-01-25T05:01:08.011Z,1.70
2018-01-25T05:02:13.748Z,1.77
2018-01-25T05:03:19.477Z,1.33
2018-01-25T05:04:25.208Z,1.70
2018-01-25T05:05:30.937Z,1.58
2018-01-25T05:06:36.691Z,1.40
2018-01-25T05:07:42.430Z,1.30
2018-01-25T05:08:48.154Z,1.23
2018-01-25T05:09:53.876Z,1.35
2018-01-25T05:11:00.374Z,1.23
2018-01-25T05:12:06.150Z,1.80
2018-01-25T05:13:11.936Z,1.80
2018-01-25T05:14:19.149Z,1.02
2018-01-25T05:15:24.892Z,1.25
2018-01-25T05:16:30.428Z,1.35
2018-01-25T05:17:41.960Z,1.35
2018-01-25T05:18:48.283Z,1.90
2018-01-25T05:19:53.828Z,1.70
2018-01-25T05:20:59.404Z,1.37
2018-01-25T05:22:04.949Z,1.30
2018-01-25T05:23:10.700Z,1.50
2018-01-25T05:24:16.424Z,1.30
2018-01-25T05:25:22.155Z,1.48
2018-01-25T05:26:27.955Z,1.40
2018-01-25T05:27:33.685Z,1.30
2018-01-25T05:28:39.454Z,1.33
2018-01-25T05:29:45.180Z,1.48
2018-01-25T05:30:50.952Z,1.33
2018-01-25T05:31:57.264Z,1.95
2018-01-25T05:33:02.957Z,1.50
2018-01-25T05:34:08.560Z,1.35
2018-01-25T05:35:15.071Z,1.75
2018-01-25T05:36:20.620Z,1.52
2018-01-25T05:37:26.746Z,1.62
2018-01-25T05:38:32.481Z,1.45
2018-01-25T05:39:38.261Z,1.48
2018-01-25T05:40:43.988Z,1.42
2018-01-25T05:41:49.735Z,1.30
2018-01-25T05:42:55.463Z,1.48
2018-01-25T05:44:01.228Z,1.45
2018-01-25T05:45:06.989Z,1.90
2018-01-25T05:46:14.238Z,1.67
2018-01-25T05:47:19.982Z,1.40
2018-01-25T05:48:25.720Z,2.05
2018-01-25T05:49:31.468Z,1.70
2018-01-25T05:50:36.915Z,1.33
2018-01-25T05:51:42.660Z,1.45
2018-01-25T05:52:49.174Z,2.00
2018-01-25T05:53:54.901Z,2.00
2018-01-25T05:55:01.415Z,1.65
2018-01-25T05:56:07.022Z,1.60
2018-01-25T05:57:12.770Z,1.95
2018-01-25T05:58:18.515Z,1.90
2018-01-25T05:59:24.264Z,1.52
2018-01-25T06:00:30.014Z,1.85
2018-01-25T06:01:35.848Z,2.10
2018-01-25T06:02:41.644Z,1.67
2018-01-25T06:03:48.300Z,1.70
2018-01-25T06:04:54.793Z,1.75
2018-01-25T06:06:00.529Z,1.75
2018-01-25T06:07:06.306Z,1.80
2018-01-25T06:08:12.055Z,1.77
2018-01-25T06:09:17.780Z,2.30
2018-01-25T06:10:23.516Z,1.30
2018-01-25T06:11:29.277Z,1.92
2018-01-25T06:12:35.024Z,1.40
2018-01-25T06:13:40.744Z,1.50
2018-01-25T06:14:46.505Z,1.67
2018-01-25T06:15:52.254Z,1.70
2018-01-25T06:16:57.981Z,1.90
2018-01-25T06:18:03.733Z,1.75
2018-01-25T06:19:09.470Z,1.40
2018-01-25T06:20:15.226Z,2.08
2018-01-25T06:21:21.776Z,2.10
2018-01-25T06:22:29.093Z,1.73
2018-01-25T06:23:34.869Z,2.10
2018-01-25T06:24:40.622Z,2.03
2018-01-25T06:25:46.375Z,2.03
2018-01-25T06:26:52.104Z,2.47
2018-01-25T06:27:57.856Z,1.60
2018-01-25T06:29:03.617Z,2.05
2018-01-25T06:30:10.127Z,2.33
2018-01-25T06:31:15.883Z,3.03
2018-01-25T06:32:21.646Z,1.90
2018-01-25T06:33:28.145Z,2.35
2018-01-25T06:34:33.905Z,2.20
2018-01-25T06:35:39.705Z,1.77
2018-01-25T06:36:45.712Z,1.83
2018-01-25T06:37:51.512Z,2.45
2018-01-25T06:38:57.355Z,2.08
2018-01-25T06:40:03.108Z,2.20
2018-01-25T06:41:08.871Z,2.20
2018-01-25T06:42:14.785Z,1.90
2018-01-25T06:43:20.513Z,2.15
2018-01-25T06:44:27.027Z,2.20
2018-01-25T06:45:32.789Z,2.40
2018-01-25T06:46:38.532Z,2.30
2018-01-25T06:47:45.033Z,2.25
2018-01-25T06:48:50.777Z,1.67
2018-01-25T06:49:56.509Z,2.15
2018-01-25T06:51:02.275Z,2.08
2018-01-25T06:52:08.025Z,2.30
2018-01-25T06:53:13.762Z,3.40
2018-01-25T06:54:19.497Z,2.58
2018-01-25T06:55:25.228Z,2.00
2018-01-25T06:56:30.823Z,2.05
2018-01-25T06:57:36.569Z,2.65
2018-01-25T06:58:43.120Z,2.12
2018-01-25T06:59:49.620Z,2.42
2018-01-25T07:00:55.344Z,2.05
2018-01-25T07:02:01.895Z,2.00
2018-01-25T07:03:08.413Z,1.85
2018-01-25T07:04:14.157Z,1.83
2018-01-25T07:05:19.947Z,2.67
2018-01-25T07:06:26.443Z,2.58
2018-01-25T07:07:32.228Z,2.87
2018-01-25T07:08:37.973Z,1.90
2018-01-25T07:09:43.707Z,2.20
2018-01-25T07:10:49.427Z,2.30
2018-01-25T07:11:55.425Z,2.03
2018-01-25T07:13:01.238Z,2.00
2018-01-25T07:14:06.961Z,2.25
2018-01-25T07:15:12.713Z,1.73
2018-01-25T07:16:18.485Z,2.05
2018-01-25T07:17:24.431Z,2.10
2018-01-25T07:18:30.961Z,2.37
2018-01-25T07:19:36.684Z,2.45
2018-01-25T07:20:42.453Z,1.80
2018-01-25T07:21:48.220Z,2.10
2018-01-25T07:22:54.739Z,1.87
2018-01-25T07:24:02.057Z,1.90
2018-01-25T07:25:07.844Z,2.67
2018-01-25T07:26:13.612Z,2.78
2018-01-25T07:27:20.143Z,2.75
2018-01-25T07:28:25.903Z,2.33
2018-01-25T07:29:31.720Z,2.37
2018-01-25T07:30:37.473Z,3.20
2018-01-25T07:31:43.270Z,2.17
2018-01-25T07:32:49.022Z,1.90
2018-01-25T07:33:54.752Z,2.20
2018-01-25T07:35:00.532Z,1.77
2018-01-25T07:36:06.287Z,2.70
2018-01-25T07:37:12.024Z,2.05
2018-01-25T07:38:17.782Z,2.10
2018-01-25T07:39:23.521Z,2.97
2018-01-25T07:40:29.267Z,2.33
2018-01-25T07:41:35.004Z,2.55
2018-01-25T07:42:40.752Z,2.10
2018-01-25T07:43:46.503Z,2.60
2018-01-25T07:44:53.001Z,2.60
2018-01-25T07:45:58.770Z,2.75
2018-01-25T07:47:04.518Z,2.42
2018-01-25T07:48:10.258Z,2.10
2018-01-25T07:49:16.017Z,2.62
2018-01-25T07:50:21.782Z,2.22
2018-01-25T07:51:28.320Z,2.65
2018-01-25T07:52:34.071Z,2.97
2018-01-25T07:53:40.579Z,2.67
2018-01-25T07:54:46.308Z,2.72
2018-01-25T07:55:52.094Z,2.80
2018-01-25T07:56:57.840Z,2.75
2018-01-25T07:58:17.809Z,2.70
2018-01-25T07:59:23.541Z,2.83
2018-01-25T08:00:29.283Z,2.28
2018-01-25T08:01:35.067Z,2.90
2018-01-25T08:02:41.596Z,1.95
2018-01-25T08:03:47.401Z,2.95
2018-01-25T08:04:53.147Z,2.33
2018-01-25T08:05:58.705Z,2.90
2018-01-25T08:07:04.197Z,2.75
2018-01-25T08:08:10.018Z,3.10
2018-01-25T08:09:16.594Z,2.90
2018-01-25T08:10:22.361Z,2.70
2018-01-25T08:11:28.122Z,2.80
2018-01-25T08:12:33.905Z,2.30
2018-01-25T08:13:40.437Z,3.00
2018-01-25T08:14:46.655Z,2.42
2018-01-25T08:15:53.155Z,2.72
2018-01-25T08:16:58.910Z,2.90
2018-01-25T08:18:05.629Z,4.30
2018-01-25T08:19:11.499Z,2.15
2018-01-25T08:20:17.279Z,3.28
2018-01-25T08:21:23.006Z,4.30
2018-01-25T08:22:29.518Z,2.60
2018-01-25T08:23:35.263Z,2.95
2018-01-25T08:24:41.036Z,7.32
2018-01-25T08:25:46.760Z,3.70
2018-01-25T08:26:52.484Z,6.62
2018-01-25T08:27:58.234Z,4.18
2018-01-25T08:29:03.975Z,3.25
2018-01-25T08:30:09.565Z,3.55
2018-01-25T08:31:15.628Z,4.62
2018-01-25T08:32:21.203Z,4.82
2018-01-25T08:33:26.951Z,3.87
2018-01-25T08:34:32.729Z,3.08
2018-01-25T08:35:39.078Z,4.18
2018-01-25T08:36:45.620Z,2.70
2018-01-25T08:37:51.659Z,3.67
2018-01-25T08:38:58.899Z,3.10
2018-01-25T08:40:04.647Z,3.00
2018-01-25T08:41:10.462Z,3.53
2018-01-25T08:42:16.207Z,2.78
2018-01-25T08:43:21.951Z,2.90
2018-01-25T08:44:28.109Z,4.07
2018-01-25T08:45:33.848Z,3.35
2018-01-25T08:46:39.601Z,3.60
2018-01-25T08:47:45.369Z,3.37
2018-01-25T08:48:51.105Z,3.12
2018-01-25T08:49:56.855Z,2.75
2018-01-25T08:51:02.581Z,3.20
2018-01-25T08:52:08.346Z,3.22
2018-01-25T08:53:14.104Z,3.28
2018-01-25T08:54:20.633Z,2.92
2018-01-25T08:55:26.414Z,3.72
2018-01-25T08:56:32.900Z,2.85
2018-01-25T08:57:38.671Z,3.50
2018-01-25T08:58:44.509Z,3.60
2018-01-25T08:59:50.258Z,3.25
2018-01-25T09:00:56.006Z,3.45
2018-01-25T09:02:01.750Z,4.20
2018-01-25T09:03:08.290Z,3.97
2018-01-25T09:04:14.014Z,3.00
2018-01-25T09:05:19.527Z,3.20
2018-01-25T09:06:25.288Z,2.75
2018-01-25T09:07:31.033Z,3.35
2018-01-25T09:08:36.789Z,3.72
2018-01-25T09:09:42.535Z,3.40
2018-01-25T09:10:48.261Z,3.20
2018-01-25T09:11:54.040Z,3.45
2018-01-25T09:12:59.586Z,2.85
2018-01-25T09:14:05.368Z,5.05
2018-01-25T09:15:11.106Z,3.33
2018-01-25T09:16:16.860Z,3.10
2018-01-25T09:17:22.596Z,4.10
2018-01-25T09:18:28.333Z,2.87
2018-01-25T09:19:34.113Z,3.33
2018-01-25T09:20:39.867Z,5.00
2018-01-25T09:21:47.113Z,5.00
2018-01-25T09:22:52.844Z,4.15
2018-01-25T09:23:58.736Z,5.45
2018-01-25T09:25:05.244Z,8.10
2018-01-25T09:26:11.012Z,5.47
2018-01-25T09:27:16.741Z,6.72
2018-01-25T09:28:22.473Z,3.92
2018-01-25T09:29:28.193Z,3.20
2018-01-25T09:30:33.978Z,3.50
2018-01-25T09:31:40.078Z,5.05
2018-01-25T09:32:45.822Z,4.05
2018-01-25T09:33:52.341Z,3.80
2018-01-25T09:34:58.064Z,3.97
2018-01-25T09:36:03.839Z,3.80
2018-01-25T09:37:10.351Z,3.75
2018-01-25T09:38:16.088Z,3.65
2018-01-25T09:39:21.839Z,3.75
2018-01-25T09:40:27.585Z,3.65
2018-01-25T09:41:33.030Z,4.62
2018-01-25T09:42:38.779Z,3.80
2018-01-25T09:43:45.273Z,3.60
2018-01-25T09:44:51.897Z,3.72
2018-01-25T09:45:57.624Z,3.92
2018-01-25T09:47:04.423Z,3.30
2018-01-25T09:48:18.506Z,4.68
2018-01-25T09:49:24.082Z,4.20
2018-01-25T09:50:29.826Z,4.90
2018-01-25T09:51:35.590Z,3.75
2018-01-25T09:52:42.336Z,4.50
2018-01-25T09:53:48.056Z,3.78
2018-01-25T09:54:53.597Z,4.57
2018-01-25T09:55:59.323Z,5.75
2018-01-25T09:57:05.084Z,4.45
2018-01-25T09:58:10.837Z,4.12
2018-01-25T09:59:16.606Z,3.62
2018-01-25T10:00:23.119Z,3.62
2018-01-25T10:01:28.877Z,3.72
2018-01-25T10:02:34.391Z,3.58
2018-01-25T10:03:40.178Z,3.20
2018-01-25T10:04:47.052Z,3.67
2018-01-25T10:05:52.810Z,11.10
2018-01-25T10:06:58.566Z,3.60
2018-01-25T10:08:04.332Z,3.55
2018-01-25T10:09:10.123Z,2.72
2018-01-25T10:10:15.891Z,3.35
2018-01-25T10:11:21.856Z,4.22
2018-01-25T10:12:27.635Z,4.00
2018-01-25T10:13:33.397Z,4.22
2018-01-25T10:14:39.152Z,3.12
2018-01-25T10:15:44.906Z,3.42
2018-01-25T10:16:50.650Z,3.45
2018-01-25T10:17:56.415Z,3.30
2018-01-25T10:19:02.337Z,3.40
2018-01-25T10:20:08.125Z,3.55
2018-01-25T10:21:14.646Z,3.45
2018-01-25T10:22:20.444Z,3.35
2018-01-25T10:23:27.032Z,3.22
2018-01-25T10:24:32.790Z,3.12
2018-01-25T10:25:38.615Z,3.20
2018-01-25T10:26:44.137Z,2.90
2018-01-25T10:27:49.873Z,3.28
2018-01-25T10:28:55.620Z,3.20
2018-01-25T10:30:01.425Z,2.30
2018-01-25T10:31:07.341Z,2.90
2018-01-25T10:32:13.475Z,2.95
2018-01-25T10:33:19.243Z,2.95
2018-01-25T10:34:25.030Z,2.70
2018-01-25T10:35:31.537Z,3.25
2018-01-25T10:36:37.325Z,3.65
2018-01-25T10:37:43.822Z,3.35
2018-01-25T10:38:49.353Z,3.20
2018-01-25T10:39:55.148Z,2.53
2018-01-25T10:41:01.663Z,3.10
2018-01-25T10:42:07.424Z,3.12
2018-01-25T10:43:13.190Z,3.25
2018-01-25T10:44:19.787Z,2.80
2018-01-25T10:45:25.535Z,3.03
2018-01-25T10:46:31.282Z,2.78
2018-01-25T10:47:37.040Z,2.35
2018-01-25T10:48:42.992Z,2.85
2018-01-25T10:49:48.776Z,3.05
2018-01-25T10:50:55.278Z,2.62
2018-01-25T10:52:01.094Z,2.67
2018-01-25T10:53:06.856Z,3.10
2018-01-25T10:54:12.643Z,2.95
2018-01-25T10:55:19.895Z,3.17
2018-01-25T10:56:25.634Z,2.65
2018-01-25T10:57:31.384Z,3.45
2018-01-25T10:58:37.173Z,2.85
2018-01-25T10:59:42.971Z,3.20
2018-01-25T11:00:54.345Z,2.62
2018-01-25T11:02:05.490Z,3.75
2018-01-25T11:03:11.224Z,3.15
2018-01-25T11:04:16.981Z,4.30
2018-01-25T11:05:22.520Z,6.15
2018-01-25T11:06:28.297Z,3.53
2018-01-25T11:07:34.803Z,2.42
2018-01-25T11:08:40.630Z,3.00
2018-01-25T11:09:46.380Z,3.15
2018-01-25T11:10:52.108Z,3.22
2018-01-25T11:11:57.867Z,3.55
2018-01-25T11:13:03.620Z,3.72
2018-01-25T11:14:09.368Z,3.33
2018-01-25T11:15:15.135Z,3.08
2018-01-25T11:16:20.899Z,4.22
2018-01-25T11:17:27.867Z,3.12
2018-01-25T11:18:34.658Z,2.97
2018-01-25T11:19:40.424Z,3.50
2018-01-25T11:20:46.189Z,3.65
2018-01-25T11:21:51.939Z,3.15
2018-01-25T11:22:57.699Z,3.85
2018-01-25T11:24:04.251Z,2.90
2018-01-25T11:25:10.751Z,3.45
2018-01-25T11:26:16.530Z,2.72
2018-01-25T11:27:22.285Z,3.25
2018-01-25T11:28:28.054Z,2.83
2018-01-25T11:29:33.831Z,2.85
2018-01-25T11:30:39.641Z,3.12
2018-01-25T11:31:45.405Z,3.00
2018-01-25T11:32:51.172Z,3.17
2018-01-25T11:33:56.939Z,3.47
2018-01-25T11:35:02.680Z,3.85
2018-01-25T11:36:09.180Z,3.65
2018-01-25T11:37:14.958Z,2.70
2018-01-25T11:38:20.724Z,2.90
2018-01-25T11:39:27.499Z,3.60
2018-01-25T11:40:34.045Z,4.05
2018-01-25T11:41:39.776Z,3.80
2018-01-25T11:42:45.556Z,3.25
2018-01-25T11:43:51.351Z,3.58
2018-01-25T11:44:57.115Z,3.85
2018-01-25T11:46:03.697Z,3.45
2018-01-25T11:47:10.039Z,3.33
2018-01-25T11:48:15.995Z,3.90
2018-01-25T11:49:22.329Z,3.75
2018-01-25T11:50:27.931Z,4.00
2018-01-25T11:51:33.694Z,3.92
2018-01-25T11:52:39.464Z,4.05
2018-01-25T11:53:46.013Z,3.72
2018-01-25T11:54:51.751Z,3.37
2018-01-25T11:55:57.534Z,6.45
2018-01-25T11:57:03.269Z,5.90
2018-01-25T11:58:09.074Z,6.07
2018-01-25T11:59:15.018Z,4.05
2018-01-25T12:00:20.767Z,3.78
2018-01-25T12:01:27.300Z,4.35
2018-01-25T12:02:33.041Z,3.15
2018-01-25T12:03:38.838Z,4.25
2018-01-25T12:04:44.598Z,3.95
2018-01-25T12:05:50.336Z,3.70
2018-01-25T12:06:55.905Z,3.67
2018-01-25T12:08:01.640Z,4.55
2018-01-25T12:09:07.371Z,3.72
2018-01-25T12:10:13.149Z,3.60
2018-01-25T12:11:19.725Z,4.10
2018-01-25T12:12:26.238Z,4.05
2018-01-25T12:13:31.960Z,4.43
2018-01-25T12:14:37.695Z,4.53
2018-01-25T12:15:43.453Z,4.25
2018-01-25T12:16:49.199Z,3.85
2018-01-25T12:17:54.951Z,4.18
2018-01-25T12:19:00.737Z,3.78
2018-01-25T12:20:07.271Z,4.57
2018-01-25T12:21:13.073Z,5.25
2018-01-25T12:22:18.800Z,4.47
2018-01-25T12:23:24.556Z,3.87
2018-01-25T12:24:29.980Z,3.97
2018-01-25T12:25:35.713Z,3.90
2018-01-25T12:26:41.552Z,4.07
2018-01-25T12:27:47.276Z,4.60
2018-01-25T12:28:53.774Z,4.25
2018-01-25T12:29:59.509Z,3.55
2018-01-25T12:31:05.267Z,3.72
2018-01-25T12:32:11.017Z,4.50
2018-01-25T12:33:16.760Z,4.20
2018-01-25T12:34:22.485Z,5.22
2018-01-25T12:35:28.224Z,4.45
2018-01-25T12:36:34.182Z,3.53
2018-01-25T12:37:39.973Z,4.15
2018-01-25T12:38:46.498Z,4.00
2018-01-25T12:39:52.273Z,4.40
2018-01-25T12:40:58.772Z,5.40
2018-01-25T12:42:04.528Z,7.47
2018-01-25T12:43:10.382Z,4.35
2018-01-25T12:44:16.147Z,4.93
2018-01-25T12:45:22.804Z,4.75
2018-01-25T12:46:28.630Z,3.85
2018-01-25T12:47:34.451Z,3.40
2018-01-25T12:48:40.241Z,3.90
2018-01-25T12:49:46.752Z,3.90
2018-01-25T12:50:52.633Z,3.70
2018-01-25T12:51:58.374Z,3.83
2018-01-25T12:53:04.133Z,3.25
2018-01-25T12:54:10.677Z,3.35
2018-01-25T12:55:16.404Z,3.85
2018-01-25T12:56:22.159Z,2.35
2018-01-25T12:57:27.892Z,3.08
2018-01-25T12:58:33.343Z,3.10
2018-01-25T12:59:39.147Z,2.72
2018-01-25T13:00:44.923Z,2.78
2018-01-25T13:01:50.689Z,2.70
2018-01-25T13:02:57.248Z,7.05
2018-01-25T13:04:03.003Z,5.53
2018-01-25T13:05:08.775Z,7.55
2018-01-25T13:06:14.556Z,4.35
2018-01-25T13:07:21.153Z,2.03
2018-01-25T13:08:26.901Z,1.87
2018-01-25T13:09:32.654Z,2.20
2018-01-25T13:10:38.426Z,2.10
2018-01-25T13:11:44.170Z,2.17
2018-01-25T13:12:49.919Z,3.40
2018-01-25T13:13:55.667Z,2.20
2018-01-25T13:15:02.214Z,2.60
2018-01-25T13:16:08.009Z,2.55
2018-01-25T13:17:13.758Z,2.40
2018-01-25T13:18:19.635Z,1.40
2018-01-25T13:19:25.413Z,1.73
2018-01-25T13:20:31.160Z,2.00
2018-01-25T13:21:36.929Z,1.52
2018-01-25T13:22:42.653Z,1.45
2018-01-25T13:23:48.400Z,2.08
2018-01-25T13:24:54.157Z,2.03
2018-01-25T13:25:59.893Z,1.52
2018-01-25T13:27:06.313Z,1.70
2018-01-25T13:28:12.828Z,2.15
2018-01-25T13:29:18.579Z,1.42
2018-01-25T13:30:24.304Z,1.52
2018-01-25T13:31:30.853Z,2.90
2018-01-25T13:32:36.859Z,1.52
2018-01-25T13:33:43.483Z,1.45
2018-01-25T13:34:49.240Z,1.33
2018-01-25T13:35:55.002Z,1.40
2018-01-25T13:37:01.521Z,1.30
2018-01-25T13:38:07.318Z,1.33
2018-01-25T13:39:13.254Z,1.80
2018-01-25T13:40:19.761Z,2.10
2018-01-25T13:41:25.494Z,1.65
2018-01-25T13:42:31.244Z,1.73
2018-01-25T13:43:37.013Z,2.08
2018-01-25T13:44:43.508Z,1.75
2018-01-25T13:45:49.643Z,1.35
2018-01-25T13:46:56.155Z,1.42
2018-01-25T13:48:02.929Z,1.75
2018-01-25T13:49:08.705Z,1.20
2018-01-25T13:50:15.282Z,1.80
2018-01-25T13:51:21.539Z,2.00
2018-01-25T13:52:32.571Z,1.50
2018-01-25T13:53:39.823Z,1.90
2018-01-25T13:54:45.572Z,1.75
2018-01-25T13:55:51.295Z,1.62
2018-01-25T13:56:57.072Z,1.40
2018-01-25T13:58:04.386Z,1.20
2018-01-25T13:59:10.116Z,1.48
2018-01-25T14:00:16.655Z,1.10
2018-01-25T14:01:22.386Z,1.27
2018-01-25T14:02:28.112Z,1.27
2018-01-25T14:03:33.869Z,1.35
2018-01-25T14:04:39.618Z,1.10
2018-01-25T14:05:45.715Z,1.20
2018-01-25T14:06:51.475Z,1.00
2018-01-25T14:07:57.261Z,1.15
2018-01-25T14:09:03.606Z,1.58
2018-01-25T14:10:10.859Z,1.10
2018-01-25T14:11:16.873Z,1.10
2018-01-25T14:12:23.543Z,0.90
2018-01-25T14:13:29.319Z,1.30
2018-01-25T14:14:35.060Z,1.40
2018-01-25T14:15:41.576Z,1.75
2018-01-25T14:16:47.468Z,1.83
2018-01-25T14:17:53.207Z,1.02
2018-01-25T14:18:59.815Z,1.25
2018-01-25T14:20:05.563Z,1.02
2018-01-25T14:21:11.302Z,1.15
2018-01-25T14:22:16.908Z,1.00
2018-01-25T14:23:23.468Z,1.00
2018-01-25T14:24:29.999Z,1.00
2018-01-25T14:25:35.733Z,1.33
2018-01-25T14:26:41.486Z,1.25
2018-01-25T14:27:47.244Z,1.62
2018-01-25T14:28:52.994Z,1.55
2018-01-25T14:29:59.491Z,1.20
2018-01-25T14:31:05.269Z,1.62
2018-01-25T14:32:11.015Z,1.40
2018-01-25T14:33:16.968Z,1.45
2018-01-25T14:34:22.725Z,1.30
2018-01-25T14:35:29.221Z,1.50
2018-01-25T14:36:35.032Z,1.15
2018-01-25T14:37:41.528Z,1.70